createdAt,value
2017-06-24T00:01:20.388Z,24.10
2017-06-24T00:03:47.820Z,24.00
2017-06-24T00:06:15.261Z,24.00
2017-06-24T00:08:42.701Z,24.00
2017-06-24T00:11:10.172Z,24.00
2017-06-24T00:13:38.455Z,24.00
2017-06-24T00:16:06.060Z,24.00
2017-06-24T00:18:33.508Z,24.00
2017-06-24T00:21:00.949Z,24.00
2017-06-24T00:23:28.406Z,24.00
2017-06-24T00:25:55.836Z,23.90
2017-06-24T00:28:23.274Z,23.90
2017-06-24T00:30:50.717Z,23.90
2017-06-24T00:33:18.168Z,23.90
2017-06-24T00:35:45.677Z,23.90
2017-06-24T00:38:13.121Z,23.90
2017-06-24T00:40:40.558Z,24.00
2017-06-24T00:43:07.996Z,24.00
2017-06-24T00:45:35.436Z,24.00
2017-06-24T00:48:02.884Z,24.00
2017-06-24T00:50:30.325Z,24.10
2017-06-24T00:52:57.764Z,24.10
2017-06-24T00:55:25.207Z,24.10
2017-06-24T00:57:52.639Z,24.20
2017-06-24T01:00:20.088Z,24.20
2017-06-24T01:02:47.546Z,24.20
2017-06-24T01:05:14.976Z,24.20
2017-06-24T01:07:42.420Z,24.20
2017-06-24T01:10:09.852Z,24.20
2017-06-24T01:12:37.305Z,24.20
2017-06-24T01:15:04.750Z,24.30
2017-06-24T01:17:32.184Z,24.30
2017-06-24T01:19:59.628Z,24.20
2017-06-24T01:22:27.070Z,24.20
2017-06-24T01:24:54.535Z,24.10
2017-06-24T01:27:21.970Z,24.10
2017-06-24T01:29:49.404Z,24.10
2017-06-24T01:32:16.844Z,24.10
2017-06-24T01:34:44.275Z,24.10
2017-06-24T01:37:11.733Z,24.10
2017-06-24T01:39:39.176Z,24.10
2017-06-24T01:42:06.611Z,24.10
2017-06-24T01:44:34.079Z,24.10
2017-06-24T01:47:01.618Z,24.00
2017-06-24T01:49:29.060Z,24.00
2017-06-24T01:51:56.497Z,24.00
2017-06-24T01:54:23.940Z,23.90
2017-06-24T01:56:51.388Z,23.90
2017-06-24T01:59:18.834Z,23.90
2017-06-24T02:01:46.281Z,23.90
2017-06-24T02:04:13.724Z,23.80
2017-06-24T02:06:41.157Z,23.80
2017-06-24T02:09:08.604Z,23.90
2017-06-24T02:11:36.050Z,23.90
2017-06-24T02:14:03.521Z,23.80
2017-06-24T02:16:30.956Z,23.80
2017-06-24T02:18:58.393Z,23.70
2017-06-24T02:21:25.836Z,23.70
2017-06-24T02:23:53.268Z,23.60
2017-06-24T02:26:20.731Z,23.60
2017-06-24T02:28:48.174Z,23.60
2017-06-24T02:31:15.612Z,23.50
2017-06-24T02:33:43.060Z,23.40
2017-06-24T02:36:10.499Z,23.30
2017-06-24T02:38:37.959Z,23.30
2017-06-24T02:41:06.160Z,23.20
2017-06-24T02:43:33.658Z,23.20
2017-06-24T02:46:01.098Z,23.20
2017-06-24T02:48:29.320Z,23.10
2017-06-24T02:50:56.761Z,23.10
2017-06-24T02:53:24.191Z,23.10
2017-06-24T02:55:51.632Z,23.10
2017-06-24T02:58:19.076Z,23.10
2017-06-24T03:00:46.513Z,23.00
2017-06-24T03:03:13.964Z,23.00
2017-06-24T03:05:41.400Z,23.00
2017-06-24T03:08:08.836Z,23.00
2017-06-24T03:10:36.281Z,23.00
2017-06-24T03:13:03.756Z,23.10
2017-06-24T03:15:31.220Z,23.10
2017-06-24T03:17:58.668Z,23.20
2017-06-24T03:20:26.108Z,23.20
2017-06-24T03:22:53.557Z,23.20
2017-06-24T03:25:21.756Z,23.30
2017-06-24T03:27:49.245Z,23.30
2017-06-24T03:30:16.664Z,23.30
2017-06-24T03:32:44.105Z,23.30
2017-06-24T03:35:11.577Z,23.30
2017-06-24T03:37:39.021Z,23.30
2017-06-24T03:40:06.489Z,23.10
2017-06-24T03:42:34.689Z,23.20
2017-06-24T03:45:02.119Z,23.20
2017-06-24T03:47:29.577Z,23.20
2017-06-24T03:49:57.011Z,23.20
2017-06-24T03:52:24.475Z,23.20
2017-06-24T03:54:51.920Z,23.20
2017-06-24T03:57:19.360Z,23.30
2017-06-24T03:59:46.810Z,23.20
2017-06-24T04:02:14.239Z,23.20
2017-06-24T04:04:41.684Z,23.20
2017-06-24T04:07:09.137Z,23.30
2017-06-24T04:09:36.579Z,23.30
2017-06-24T04:12:04.032Z,23.30
2017-06-24T04:14:31.473Z,23.40
2017-06-24T04:16:58.939Z,23.40
2017-06-24T04:19:27.146Z,23.40
2017-06-24T04:21:54.590Z,23.40
2017-06-24T04:24:22.036Z,23.50
2017-06-24T04:26:49.584Z,23.50
2017-06-24T04:29:17.048Z,23.50
2017-06-24T04:31:44.493Z,23.60
2017-06-24T04:34:11.928Z,23.60
2017-06-24T04:36:39.381Z,23.60
2017-06-24T04:39:06.820Z,23.60
2017-06-24T04:41:34.359Z,23.60
2017-06-24T04:44:01.792Z,23.60
2017-06-24T04:46:29.242Z,23.50
2017-06-24T04:48:56.681Z,23.60
2017-06-24T04:51:24.123Z,23.60
2017-06-24T04:53:51.612Z,23.60
2017-06-24T04:56:19.055Z,23.70
2017-06-24T04:58:47.252Z,23.80
2017-06-24T05:01:14.702Z,23.90
2017-06-24T05:03:42.136Z,23.90
2017-06-24T05:06:09.608Z,23.90
2017-06-24T05:08:37.088Z,23.90
2017-06-24T05:11:04.535Z,23.90
2017-06-24T05:13:31.980Z,23.90
2017-06-24T05:15:59.419Z,23.90
2017-06-24T05:18:26.878Z,24.00
2017-06-24T05:20:54.339Z,24.10
2017-06-24T05:23:21.761Z,24.20
2017-06-24T05:25:49.204Z,24.40
2017-06-24T05:28:16.641Z,24.50
2017-06-24T05:30:44.093Z,24.50
2017-06-24T05:33:11.532Z,24.40
2017-06-24T05:35:38.972Z,24.50
2017-06-24T05:38:06.481Z,24.80
2017-06-24T05:40:33.932Z,25.20
2017-06-24T05:43:02.148Z,25.40
2017-06-24T05:45:29.576Z,25.40
2017-06-24T05:47:57.261Z,25.50
2017-06-24T05:50:24.691Z,25.70
2017-06-24T05:52:52.134Z,26.10
2017-06-24T05:55:19.586Z,26.30
2017-06-24T05:57:47.012Z,26.70
2017-06-24T06:00:14.452Z,27.10
2017-06-24T06:02:41.921Z,27.60
2017-06-24T06:05:09.359Z,28.00
2017-06-24T06:07:36.817Z,28.30
2017-06-24T06:10:05.012Z,28.70
2017-06-24T06:12:32.448Z,28.70
2017-06-24T06:14:59.888Z,28.60
2017-06-24T06:17:27.325Z,28.50
2017-06-24T06:19:54.788Z,28.50
2017-06-24T06:22:22.224Z,28.40
2017-06-24T06:24:49.659Z,28.10
2017-06-24T06:27:17.108Z,27.80
2017-06-24T06:29:44.552Z,27.50
2017-06-24T06:32:12.008Z,27.30
2017-06-24T06:34:39.463Z,26.80
2017-06-24T06:37:06.952Z,26.40
2017-06-24T06:39:35.164Z,26.20
2017-06-24T06:42:02.592Z,26.20
2017-06-24T06:44:30.028Z,26.10
2017-06-24T06:46:57.461Z,26.00
2017-06-24T06:49:24.920Z,26.00
2017-06-24T06:51:52.349Z,25.80
2017-06-24T06:54:19.792Z,25.80
2017-06-24T06:56:47.233Z,25.70
2017-06-24T06:59:14.668Z,25.80
2017-06-24T07:01:42.100Z,25.90
2017-06-24T07:04:10.321Z,26.00
2017-06-24T07:06:37.760Z,26.00
2017-06-24T07:09:05.208Z,26.00
2017-06-24T07:11:32.659Z,26.20
2017-06-24T07:14:00.100Z,26.30
2017-06-24T07:16:27.541Z,26.50
2017-06-24T07:18:55.017Z,26.80
2017-06-24T07:21:23.221Z,27.40
2017-06-24T07:23:50.664Z,27.30
2017-06-24T07:26:18.108Z,27.70
2017-06-24T07:28:45.555Z,27.60
2017-06-24T07:31:12.993Z,27.40
2017-06-24T07:33:40.442Z,27.50
2017-06-24T07:36:07.888Z,27.80
2017-06-24T07:38:35.328Z,28.30
2017-06-24T07:41:02.768Z,28.90
2017-06-24T07:43:30.212Z,29.20
2017-06-24T07:45:57.656Z,29.30
2017-06-24T07:48:25.108Z,29.90
2017-06-24T07:50:52.540Z,30.40
2017-06-24T07:53:19.991Z,30.80
2017-06-24T07:55:47.424Z,31.20
2017-06-24T07:58:14.867Z,31.30
2017-06-24T08:00:42.308Z,31.20
2017-06-24T08:03:09.758Z,31.30
2017-06-24T08:05:37.221Z,31.20
2017-06-24T08:08:04.652Z,30.80
2017-06-24T08:10:32.088Z,30.60
2017-06-24T08:12:59.537Z,30.00
2017-06-24T08:15:26.981Z,30.20
2017-06-24T08:17:54.440Z,30.60
2017-06-24T08:20:21.867Z,31.00
2017-06-24T08:22:49.307Z,31.60
2017-06-24T08:25:16.754Z,32.00
2017-06-24T08:27:44.176Z,31.90
2017-06-24T08:30:11.618Z,31.60
2017-06-24T08:32:39.069Z,31.20
2017-06-24T08:35:06.602Z,31.20
2017-06-24T08:37:34.064Z,31.50
2017-06-24T08:40:01.520Z,31.70
2017-06-24T08:42:28.973Z,31.60
2017-06-24T08:44:57.218Z,30.90
2017-06-24T08:47:24.677Z,30.90
2017-06-24T08:49:52.131Z,30.60
2017-06-24T08:52:20.543Z,30.00
2017-06-24T08:54:47.987Z,30.00
2017-06-24T08:57:15.501Z,29.70
2017-06-24T08:59:43.092Z,29.80
2017-06-24T09:02:10.540Z,29.90
2017-06-24T09:04:37.964Z,29.70
2017-06-24T09:07:05.408Z,29.70
2017-06-24T09:09:32.846Z,29.70
2017-06-24T09:12:00.316Z,29.60
2017-06-24T09:14:27.772Z,29.50
2017-06-24T09:16:55.212Z,29.30
2017-06-24T09:19:23.428Z,29.50
2017-06-24T09:21:50.863Z,29.50
2017-06-24T09:24:18.300Z,29.70
2017-06-24T09:26:45.764Z,29.90
2017-06-24T09:29:13.205Z,30.30
2017-06-24T09:31:41.480Z,30.40
2017-06-24T09:34:08.914Z,30.60
2017-06-24T09:36:36.355Z,30.90
2017-06-24T09:39:03.792Z,30.90
2017-06-24T09:41:31.220Z,31.10
2017-06-24T09:43:58.656Z,31.10
2017-06-24T09:46:26.100Z,31.00
2017-06-24T09:48:53.550Z,31.20
2017-06-24T09:51:20.999Z,31.40
2017-06-24T09:53:48.469Z,31.20
2017-06-24T09:56:15.914Z,31.10
2017-06-24T09:58:43.360Z,30.70
2017-06-24T10:01:10.825Z,30.30
2017-06-24T10:03:38.300Z,30.00
2017-06-24T10:06:05.755Z,29.90
2017-06-24T10:08:33.201Z,29.90
2017-06-24T10:11:00.636Z,29.90
2017-06-24T10:13:28.070Z,29.60
2017-06-24T10:15:55.504Z,29.80
2017-06-24T10:18:22.945Z,30.40
2017-06-24T10:20:50.379Z,31.00
2017-06-24T10:23:18.596Z,31.20
2017-06-24T10:25:46.093Z,31.20
2017-06-24T10:28:13.541Z,31.50
2017-06-24T10:30:40.993Z,31.80
2017-06-24T10:33:08.420Z,32.30
2017-06-24T10:35:35.860Z,32.70
2017-06-24T10:38:03.305Z,33.00
2017-06-24T10:40:30.773Z,33.40
2017-06-24T10:42:58.215Z,33.60
2017-06-24T10:45:25.663Z,33.00
2017-06-24T10:47:53.110Z,32.90
2017-06-24T10:50:20.541Z,33.10
2017-06-24T10:52:48.048Z,32.70
2017-06-24T10:55:16.375Z,32.00
2017-06-24T10:57:43.904Z,32.00
2017-06-24T11:00:11.339Z,31.70
2017-06-24T11:02:38.782Z,31.40
2017-06-24T11:05:06.244Z,31.10
2017-06-24T11:07:33.715Z,30.70
2017-06-24T11:10:01.928Z,30.50
2017-06-24T11:12:29.373Z,30.40
2017-06-24T11:14:56.840Z,30.30
2017-06-24T11:17:24.293Z,30.20
2017-06-24T11:19:51.728Z,30.00
2017-06-24T11:22:19.167Z,30.00
2017-06-24T11:24:46.641Z,30.10
2017-06-24T11:27:14.845Z,29.90
2017-06-24T11:29:42.308Z,29.90
2017-06-24T11:32:09.752Z,29.80
2017-06-24T11:34:37.196Z,29.50
2017-06-24T11:37:04.655Z,29.40
2017-06-24T11:39:32.108Z,29.40
2017-06-24T11:42:00.336Z,29.30
2017-06-24T11:44:27.797Z,29.30
2017-06-24T11:46:55.245Z,29.40
2017-06-24T11:49:22.725Z,29.20
2017-06-24T11:51:50.166Z,29.20
2017-06-24T11:54:17.659Z,29.20
2017-06-24T11:56:45.097Z,29.20
2017-06-24T11:59:12.549Z,29.20
2017-06-24T12:01:39.976Z,29.20
2017-06-24T12:04:07.422Z,29.10
2017-06-24T12:06:34.872Z,29.00
2017-06-24T12:09:02.316Z,28.90
2017-06-24T12:11:29.761Z,28.90
2017-06-24T12:13:57.195Z,29.00
2017-06-24T12:16:24.656Z,29.10
2017-06-24T12:18:52.092Z,29.10
2017-06-24T12:21:19.537Z,29.20
2017-06-24T12:23:46.969Z,29.10
2017-06-24T12:26:14.433Z,29.10
2017-06-24T12:28:41.904Z,29.10
2017-06-24T12:31:10.108Z,29.10
2017-06-24T12:33:37.545Z,29.10
2017-06-24T12:36:05.008Z,29.20
2017-06-24T12:38:32.460Z,29.30
2017-06-24T12:40:59.892Z,29.40
2017-06-24T12:43:27.337Z,29.40
2017-06-24T12:45:54.780Z,29.30
2017-06-24T12:48:22.215Z,29.10
2017-06-24T12:50:49.663Z,29.10
2017-06-24T12:53:17.115Z,29.10
2017-06-24T12:55:44.567Z,29.20
2017-06-24T12:58:12.903Z,29.30
2017-06-24T13:00:40.337Z,29.30
2017-06-24T13:03:07.780Z,29.10
2017-06-24T13:05:35.219Z,28.90
2017-06-24T13:08:02.657Z,28.80
2017-06-24T13:10:30.100Z,28.80
2017-06-24T13:12:58.436Z,28.90
2017-06-24T13:15:25.880Z,29.10
2017-06-24T13:17:53.344Z,29.20
2017-06-24T13:20:20.776Z,29.20
2017-06-24T13:22:48.247Z,29.30
2017-06-24T13:25:15.686Z,29.50
2017-06-24T13:27:43.171Z,29.60
2017-06-24T13:30:11.389Z,29.80
2017-06-24T13:32:38.835Z,29.70
2017-06-24T13:35:06.281Z,29.80
2017-06-24T13:37:33.722Z,29.80
2017-06-24T13:40:01.164Z,29.80
2017-06-24T13:42:28.596Z,29.90
2017-06-24T13:44:56.049Z,29.80
2017-06-24T13:47:23.524Z,29.70
2017-06-24T13:49:51.841Z,29.60
2017-06-24T13:52:19.264Z,29.60
2017-06-24T13:54:46.764Z,29.70
2017-06-24T13:57:14.211Z,29.70
2017-06-24T13:59:41.644Z,29.60
2017-06-24T14:02:09.086Z,29.70
2017-06-24T14:04:36.530Z,29.70
2017-06-24T14:07:03.987Z,29.70
2017-06-24T14:09:31.440Z,29.60
2017-06-24T14:11:59.645Z,29.60
2017-06-24T14:14:27.088Z,29.60
2017-06-24T14:16:54.525Z,29.50
2017-06-24T14:19:22.079Z,29.60
2017-06-24T14:21:49.503Z,29.60
2017-06-24T14:24:17.072Z,29.60
2017-06-24T14:26:44.507Z,29.40
2017-06-24T14:29:11.948Z,29.40
2017-06-24T14:31:39.387Z,29.50
2017-06-24T14:34:06.831Z,29.60
2017-06-24T14:36:34.296Z,29.60
2017-06-24T14:39:01.731Z,29.50
2017-06-24T14:41:29.208Z,29.50
2017-06-24T14:43:57.408Z,29.50
2017-06-24T14:46:24.848Z,29.50
2017-06-24T14:48:52.292Z,29.50
2017-06-24T14:51:19.734Z,29.50
2017-06-24T14:53:47.188Z,29.50
2017-06-24T14:56:14.622Z,29.70
2017-06-24T14:58:42.076Z,29.90
2017-06-24T15:01:09.509Z,30.00
2017-06-24T15:03:36.948Z,29.90
2017-06-24T15:06:04.398Z,29.80
2017-06-24T15:08:31.832Z,29.70
2017-06-24T15:10:59.324Z,29.80
2017-06-24T15:13:26.757Z,29.90
2017-06-24T15:15:54.200Z,29.90
2017-06-24T15:18:21.646Z,29.90
2017-06-24T15:20:49.078Z,29.90
2017-06-24T15:23:16.527Z,29.90
2017-06-24T15:25:44.015Z,29.80
2017-06-24T15:28:11.460Z,29.90
2017-06-24T15:30:38.892Z,29.90
2017-06-24T15:33:06.367Z,29.90
2017-06-24T15:35:33.805Z,29.80
2017-06-24T15:38:01.236Z,29.80
2017-06-24T15:40:28.680Z,29.80
2017-06-24T15:42:56.128Z,29.90
2017-06-24T15:45:23.575Z,30.00
2017-06-24T15:47:51.001Z,29.90
2017-06-24T15:50:18.444Z,29.90
2017-06-24T15:52:46.001Z,29.80
2017-06-24T15:55:14.267Z,29.70
2017-06-24T15:57:41.708Z,29.70
2017-06-24T16:00:09.164Z,29.60
2017-06-24T16:02:36.619Z,29.70
2017-06-24T16:05:04.052Z,29.70
2017-06-24T16:07:31.497Z,29.70
2017-06-24T16:09:58.936Z,29.70
2017-06-24T16:12:26.376Z,29.60
2017-06-24T16:14:53.816Z,29.60
2017-06-24T16:17:21.276Z,29.50
2017-06-24T16:19:48.713Z,29.50
2017-06-24T16:22:16.161Z,29.40
2017-06-24T16:24:43.606Z,29.30
2017-06-24T16:27:11.046Z,29.20
2017-06-24T16:29:38.489Z,29.10
2017-06-24T16:32:06.976Z,29.00
2017-06-24T16:34:34.417Z,29.00
2017-06-24T16:37:01.855Z,29.00
2017-06-24T16:39:29.288Z,29.10
2017-06-24T16:41:56.764Z,29.10
2017-06-24T16:44:24.964Z,29.00
2017-06-24T16:46:52.432Z,29.00
2017-06-24T16:49:19.868Z,29.00
2017-06-24T16:51:47.312Z,29.00
2017-06-24T16:54:15.663Z,28.90
2017-06-24T16:56:43.092Z,28.90
2017-06-24T16:59:10.532Z,29.00
2017-06-24T17:01:37.979Z,29.00
2017-06-24T17:04:05.408Z,29.00
2017-06-24T17:06:32.841Z,28.90
2017-06-24T17:09:00.294Z,28.80
2017-06-24T17:11:27.724Z,28.70
2017-06-24T17:13:55.181Z,28.70
2017-06-24T17:16:22.619Z,28.70
2017-06-24T17:18:50.063Z,28.70
2017-06-24T17:21:17.502Z,28.80
2017-06-24T17:23:44.939Z,28.70
2017-06-24T17:26:12.385Z,28.60
2017-06-24T17:28:39.821Z,28.60
2017-06-24T17:31:07.263Z,28.60
2017-06-24T17:33:34.741Z,28.70
2017-06-24T17:36:02.223Z,28.70
2017-06-24T17:38:29.660Z,28.70
2017-06-24T17:40:57.095Z,28.70
2017-06-24T17:43:24.547Z,28.80
2017-06-24T17:45:52.755Z,28.80
2017-06-24T17:48:20.201Z,28.80
2017-06-24T17:50:47.658Z,28.70
2017-06-24T17:53:15.094Z,28.70
2017-06-24T17:55:42.528Z,28.60
2017-06-24T17:58:09.956Z,28.60
2017-06-24T18:00:37.393Z,28.50
2017-06-24T18:03:04.832Z,28.40
2017-06-24T18:05:32.281Z,28.30
2017-06-24T18:07:59.713Z,28.30
2017-06-24T18:10:27.962Z,28.10
2017-06-24T18:12:55.387Z,28.10
2017-06-24T18:15:22.839Z,28.10
2017-06-24T18:17:50.272Z,28.00
2017-06-24T18:20:17.709Z,28.00
2017-06-24T18:22:45.212Z,28.00
2017-06-24T18:25:12.671Z,28.00
2017-06-24T18:27:40.111Z,27.90
2017-06-24T18:30:07.561Z,27.90
2017-06-24T18:32:35.024Z,27.90
2017-06-24T18:35:02.464Z,27.90
2017-06-24T18:37:29.911Z,27.80
2017-06-24T18:39:57.345Z,27.90
2017-06-24T18:42:24.784Z,27.80
2017-06-24T18:44:52.224Z,27.80
2017-06-24T18:47:19.758Z,27.70
2017-06-24T18:49:47.198Z,27.60
2017-06-24T18:52:14.632Z,27.60
2017-06-24T18:54:42.081Z,27.60
2017-06-24T18:57:09.516Z,27.50
2017-06-24T18:59:36.971Z,27.40
2017-06-24T19:02:04.424Z,27.30
2017-06-24T19:04:31.860Z,27.20
2017-06-24T19:06:59.309Z,27.20
2017-06-24T19:09:26.748Z,27.20
2017-06-24T19:11:54.217Z,27.10
2017-06-24T19:14:21.657Z,26.90
2017-06-24T19:16:49.109Z,26.90
2017-06-24T19:19:16.553Z,26.80
2017-06-24T19:21:43.985Z,26.80
2017-06-24T19:24:11.424Z,26.70
2017-06-24T19:26:38.861Z,26.70
2017-06-24T19:29:06.311Z,26.80
2017-06-24T19:31:33.748Z,26.70
2017-06-24T19:34:01.219Z,26.80
2017-06-24T19:36:29.425Z,26.70
2017-06-24T19:38:56.862Z,26.70
2017-06-24T19:41:24.336Z,26.60
2017-06-24T19:43:51.779Z,26.60
2017-06-24T19:46:19.220Z,26.60
2017-06-24T19:48:46.655Z,26.50
2017-06-24T19:51:14.111Z,26.50
2017-06-24T19:53:41.556Z,26.50
2017-06-24T19:56:08.988Z,26.50
2017-06-24T19:58:36.422Z,26.50
2017-06-24T20:01:03.857Z,26.40
2017-06-24T20:03:31.298Z,26.40
2017-06-24T20:05:58.725Z,26.40
2017-06-24T20:08:26.170Z,26.40
2017-06-24T20:10:53.600Z,26.50
2017-06-24T20:13:21.036Z,26.40
2017-06-24T20:15:48.480Z,26.30
2017-06-24T20:18:15.940Z,26.30
2017-06-24T20:20:43.367Z,26.30
2017-06-24T20:23:10.818Z,26.20
2017-06-24T20:25:38.264Z,26.10
2017-06-24T20:28:05.744Z,26.00
2017-06-24T20:30:33.176Z,25.90
2017-06-24T20:33:00.915Z,25.90
2017-06-24T20:35:28.339Z,25.70
2017-06-24T20:37:56.600Z,25.60
2017-06-24T20:40:25.376Z,25.40
2017-06-24T20:42:52.805Z,25.30
2017-06-24T20:45:20.232Z,25.20
2017-06-24T20:47:48.442Z,25.10
2017-06-24T20:50:15.896Z,25.00
2017-06-24T20:52:43.331Z,25.00
2017-06-24T20:55:10.763Z,24.90
2017-06-24T20:57:38.199Z,24.70
2017-06-24T21:00:40.660Z,24.60
2017-06-24T21:03:08.106Z,24.50
2017-06-24T21:05:35.530Z,24.50
2017-06-24T21:08:02.963Z,24.60
2017-06-24T21:10:30.401Z,24.50
2017-06-24T21:12:57.838Z,24.30
2017-06-24T21:15:26.070Z,24.40
2017-06-24T21:17:53.492Z,24.30
2017-06-24T21:20:20.935Z,24.40
2017-06-24T21:22:48.364Z,24.50
2017-06-24T21:25:15.798Z,24.50
2017-06-24T21:27:43.328Z,24.50
2017-06-24T21:30:10.758Z,24.50
2017-06-24T21:32:38.220Z,24.60
2017-06-24T21:35:05.730Z,24.60
2017-06-24T21:37:33.948Z,24.60
2017-06-24T21:40:01.376Z,24.60
2017-06-24T21:42:28.815Z,24.60
2017-06-24T21:44:56.248Z,24.50
2017-06-24T21:47:23.704Z,24.50
2017-06-24T21:49:51.136Z,24.50
2017-06-24T21:52:18.567Z,24.40
2017-06-24T21:54:46.000Z,24.20
2017-06-24T21:57:14.192Z,24.10
2017-06-24T21:59:41.625Z,24.10
2017-06-24T22:02:09.083Z,24.10
2017-06-24T22:04:36.596Z,24.10
2017-06-24T22:07:04.048Z,24.00
2017-06-24T22:09:31.476Z,24.00
2017-06-24T22:11:58.928Z,23.90
2017-06-24T22:14:26.361Z,23.90
2017-06-24T22:16:53.851Z,23.80
2017-06-24T22:19:21.293Z,23.70
2017-06-24T22:21:48.732Z,23.60
2017-06-24T22:24:16.450Z,23.60
2017-06-24T22:26:43.912Z,23.60
2017-06-24T22:29:11.371Z,23.60
2017-06-24T22:31:38.832Z,23.50
2017-06-24T22:34:06.271Z,23.50
2017-06-24T22:36:33.737Z,23.50
2017-06-24T22:39:01.936Z,23.40
2017-06-24T22:41:29.377Z,23.30
2017-06-24T22:43:56.824Z,23.30
2017-06-24T22:46:24.259Z,23.30
2017-06-24T22:48:51.709Z,23.20
2017-06-24T22:51:19.148Z,23.10
2017-06-24T22:53:46.580Z,23.10
2017-06-24T22:56:14.024Z,23.10
2017-06-24T22:58:41.536Z,23.00
2017-06-24T23:01:09.744Z,22.90
2017-06-24T23:03:37.176Z,22.80
2017-06-24T23:06:04.638Z,22.80
2017-06-24T23:08:32.063Z,22.70
2017-06-24T23:10:59.495Z,22.60
2017-06-24T23:13:26.945Z,22.60
2017-06-24T23:15:54.384Z,22.60
2017-06-24T23:18:21.828Z,22.60
2017-06-24T23:20:49.262Z,22.60
2017-06-24T23:23:16.692Z,22.50
2017-06-24T23:25:44.896Z,22.60
2017-06-24T23:28:12.340Z,22.50
2017-06-24T23:30:39.784Z,22.50
2017-06-24T23:33:07.226Z,22.50
2017-06-24T23:35:34.687Z,22.50
2017-06-24T23:38:02.145Z,22.50
2017-06-24T23:40:29.576Z,22.40
2017-06-24T23:42:57.017Z,22.30
2017-06-24T23:45:24.464Z,22.20
2017-06-24T23:47:51.899Z,22.20
2017-06-24T23:50:19.327Z,22.10
2017-06-24T23:52:46.788Z,22.10
2017-06-24T23:55:14.221Z,22.10
2017-06-24T23:57:41.656Z,22.10
